createdAt,value
2018-06-21T00:02:09.423Z,21.90
2018-06-21T00:05:19.533Z,21.90
2018-06-21T00:08:28.798Z,21.90
2018-06-21T00:11:39.023Z,21.90
2018-06-21T00:14:49.309Z,21.80
2018-06-21T00:18:11.959Z,21.80
2018-06-21T00:21:30.663Z,21.70
2018-06-21T00:27:39.181Z,21.70
2018-06-21T00:30:48.021Z,21.60
2018-06-21T00:33:55.117Z,21.60
2018-06-21T00:37:04.765Z,21.60
2018-06-21T00:40:12.883Z,21.60
2018-06-21T00:43:21.289Z,21.60
2018-06-21T00:46:31.297Z,21.50
2018-06-21T00:49:40.153Z,21.50
2018-06-21T00:52:49.539Z,21.50
2018-06-21T00:56:09.419Z,21.50
2018-06-21T00:59:17.637Z,21.50
2018-06-21T01:02:26.192Z,21.40
2018-06-21T01:05:36.963Z,21.50
2018-06-21T01:08:45.023Z,21.40
2018-06-21T01:11:54.472Z,21.40
2018-06-21T01:15:05.191Z,21.40
2018-06-21T01:18:14.351Z,21.30
2018-06-21T01:21:23.555Z,21.40
2018-06-21T01:24:33.371Z,21.40
2018-06-21T01:27:41.636Z,21.40
2018-06-21T01:30:49.891Z,21.30
2018-06-21T01:33:59.085Z,21.30
2018-06-21T01:37:09.795Z,21.30
2018-06-21T01:40:19.287Z,21.20
2018-06-21T01:43:28.625Z,21.40
2018-06-21T01:46:39.853Z,21.30
2018-06-21T01:49:49.169Z,21.30
2018-06-21T01:53:00.191Z,21.30
2018-06-21T01:56:09.136Z,21.30
2018-06-21T01:59:17.648Z,21.30
2018-06-21T02:02:26.507Z,21.30
2018-06-21T02:08:37.897Z,21.20
2018-06-21T02:14:48.075Z,21.20
2018-06-21T02:17:56.622Z,21.10
2018-06-21T02:21:06.093Z,21.10
2018-06-21T02:24:15.685Z,21.10
2018-06-21T02:27:26.493Z,21.00
2018-06-21T02:30:35.217Z,21.10
2018-06-21T02:33:43.783Z,21.10
2018-06-21T02:36:53.129Z,21.10
2018-06-21T02:40:01.973Z,21.00
2018-06-21T02:43:10.308Z,21.00
2018-06-21T02:46:18.619Z,21.10
2018-06-21T02:49:27.977Z,21.00
2018-06-21T02:52:36.213Z,20.90
2018-06-21T02:55:46.507Z,21.00
2018-06-21T03:01:55.197Z,20.90
2018-06-21T03:08:04.952Z,20.90
2018-06-21T03:11:14.852Z,21.00
2018-06-21T03:14:23.891Z,20.90
2018-06-21T03:17:34.414Z,20.90
2018-06-21T03:20:42.521Z,20.90
2018-06-21T03:23:51.839Z,20.90
2018-06-21T03:27:01.325Z,20.90
2018-06-21T03:30:09.780Z,20.80
2018-06-21T03:33:19.249Z,20.90
2018-06-21T03:36:30.312Z,20.90
2018-06-21T03:39:39.859Z,20.80
2018-06-21T03:42:50.997Z,20.80
2018-06-21T03:46:00.782Z,20.80
2018-06-21T03:49:10.208Z,20.80
2018-06-21T03:52:18.431Z,20.70
2018-06-21T03:58:27.863Z,20.70
2018-06-21T04:01:37.813Z,20.70
2018-06-21T04:04:46.483Z,20.70
2018-06-21T04:07:55.583Z,20.70
2018-06-21T04:11:03.354Z,20.70
2018-06-21T04:14:11.177Z,20.70
2018-06-21T04:17:19.503Z,20.70
2018-06-21T04:23:42.659Z,20.60
2018-06-21T04:29:50.998Z,20.60
2018-06-21T04:32:59.959Z,20.60
2018-06-21T04:39:08.239Z,20.50
2018-06-21T04:42:16.445Z,20.60
2018-06-21T04:45:26.467Z,20.50
2018-06-21T04:48:35.399Z,20.50
2018-06-21T04:51:43.659Z,20.60
2018-06-21T04:54:54.027Z,20.50
2018-06-21T04:58:05.033Z,20.60
2018-06-21T05:01:15.154Z,20.50
2018-06-21T05:04:23.385Z,20.50
2018-06-21T05:07:33.519Z,20.50
2018-06-21T05:10:43.175Z,20.50
2018-06-21T05:13:53.983Z,20.40
2018-06-21T05:17:03.129Z,20.40
2018-06-21T05:20:11.757Z,20.40
2018-06-21T05:23:20.397Z,20.50
2018-06-21T05:26:29.031Z,20.50
2018-06-21T05:29:38.363Z,20.60
2018-06-21T05:32:47.753Z,20.60
2018-06-21T05:35:58.903Z,20.50
2018-06-21T05:39:06.718Z,20.50
2018-06-21T05:42:14.914Z,20.50
2018-06-21T05:45:22.070Z,20.40
2018-06-21T05:51:43.150Z,20.30
2018-06-21T05:54:51.550Z,20.40
2018-06-21T05:57:59.128Z,20.40
2018-06-21T06:01:12.642Z,20.30
2018-06-21T06:04:22.447Z,20.40
2018-06-21T06:07:31.506Z,20.40
2018-06-21T06:10:39.099Z,20.30
2018-06-21T06:16:46.966Z,20.40
2018-06-21T06:19:55.835Z,20.40
2018-06-21T06:23:05.590Z,20.40
2018-06-21T06:26:15.059Z,20.30
2018-06-21T06:29:23.058Z,20.30
2018-06-21T06:32:31.795Z,20.30
2018-06-21T06:35:41.903Z,20.30
2018-06-21T06:38:50.735Z,20.20
2018-06-21T06:42:00.517Z,20.30
2018-06-21T06:45:10.969Z,20.20
2018-06-21T06:48:18.945Z,20.20
2018-06-21T06:51:27.285Z,20.20
2018-06-21T06:54:35.594Z,20.20
2018-06-21T07:00:43.254Z,20.20
2018-06-21T07:03:51.736Z,20.20
2018-06-21T07:07:00.697Z,20.20
2018-06-21T07:10:09.399Z,20.20
2018-06-21T07:13:19.707Z,20.30
2018-06-21T07:16:30.386Z,20.30
2018-06-21T07:19:38.916Z,20.20
2018-06-21T07:22:47.241Z,20.20
2018-06-21T07:25:56.209Z,20.20
2018-06-21T07:29:05.979Z,20.20
2018-06-21T07:32:14.605Z,20.20
2018-06-21T07:35:25.049Z,20.10
2018-06-21T07:38:35.213Z,20.10
2018-06-21T07:44:43.288Z,20.10
2018-06-21T07:47:52.917Z,20.10
2018-06-21T07:51:02.809Z,20.10
2018-06-21T07:54:11.263Z,20.20
2018-06-21T07:57:20.753Z,20.20
2018-06-21T08:06:29.099Z,20.20
2018-06-21T08:09:37.949Z,20.10
2018-06-21T08:12:48.310Z,20.10
2018-06-21T08:18:56.529Z,20.00
2018-06-21T08:22:04.969Z,20.10
2018-06-21T08:25:13.595Z,20.00
2018-06-21T08:28:21.479Z,20.00
2018-06-21T08:37:32.267Z,20.10
2018-06-21T08:40:40.122Z,20.10
2018-06-21T08:43:49.961Z,20.10
2018-06-21T08:46:59.208Z,20.20
2018-06-21T08:50:08.531Z,20.10
2018-06-21T08:53:16.691Z,20.10
2018-06-21T08:56:27.117Z,20.10
2018-06-21T08:59:36.676Z,20.10
2018-06-21T09:02:46.555Z,20.00
2018-06-21T09:05:54.756Z,20.10
2018-06-21T09:09:04.248Z,20.10
2018-06-21T09:15:15.973Z,20.10
2018-06-21T09:18:25.538Z,20.10
2018-06-21T09:21:35.543Z,20.10
2018-06-21T09:24:44.987Z,20.10
2018-06-21T09:27:55.003Z,20.00
2018-06-21T09:31:03.218Z,20.00
2018-06-21T09:34:12.997Z,20.10
2018-06-21T09:37:21.352Z,20.10
2018-06-21T09:40:34.908Z,20.20
2018-06-21T09:44:03.824Z,20.20
2018-06-21T09:47:06.697Z,20.10
2018-06-21T09:50:16.136Z,20.00
2018-06-21T09:53:23.633Z,20.00
2018-06-21T09:56:31.509Z,20.10
2018-06-21T09:59:40.567Z,20.00
2018-06-21T10:02:50.240Z,20.00
2018-06-21T10:05:59.090Z,20.10
2018-06-21T10:09:07.150Z,20.00
2018-06-21T10:12:15.305Z,20.00
2018-06-21T10:15:24.075Z,20.00
2018-06-21T10:18:33.417Z,20.10
2018-06-21T10:21:42.686Z,20.10
2018-06-21T10:24:50.681Z,20.10
2018-06-21T10:27:59.108Z,20.10
2018-06-21T10:31:07.746Z,20.10
2018-06-21T10:34:15.788Z,20.10
2018-06-21T10:37:22.609Z,20.00
2018-06-21T10:40:31.992Z,20.10
2018-06-21T10:43:41.492Z,20.00
2018-06-21T10:46:53.056Z,20.00
2018-06-21T10:50:00.798Z,20.00
2018-06-21T10:53:10.063Z,20.00
2018-06-21T10:56:18.796Z,20.00
2018-06-21T10:59:28.698Z,20.00
2018-06-21T11:02:37.063Z,20.00
2018-06-21T11:08:45.342Z,20.10
2018-06-21T11:11:55.911Z,20.20
2018-06-21T11:15:05.279Z,20.00
2018-06-21T11:18:15.022Z,20.10
2018-06-21T11:21:25.946Z,20.10
2018-06-21T11:24:34.840Z,20.00
2018-06-21T11:27:44.887Z,20.10
2018-06-21T11:30:53.781Z,20.10
2018-06-21T11:34:03.877Z,20.10
2018-06-21T11:37:13.677Z,20.10
2018-06-21T11:40:21.776Z,20.00
2018-06-21T11:43:30.637Z,20.00
2018-06-21T11:46:41.127Z,20.00
2018-06-21T11:49:49.445Z,20.00
2018-06-21T11:52:58.151Z,20.00
2018-06-21T11:56:06.918Z,20.00
2018-06-21T11:59:17.013Z,20.10
2018-06-21T12:05:26.919Z,20.10
2018-06-21T12:08:35.189Z,20.10
2018-06-21T12:11:44.142Z,20.00
2018-06-21T12:14:54.190Z,20.00
2018-06-21T12:18:03.084Z,20.00
2018-06-21T12:21:12.652Z,20.00
2018-06-21T12:24:21.905Z,19.90
2018-06-21T12:27:31.610Z,20.00
2018-06-21T12:36:42.034Z,20.00
2018-06-21T12:39:51.541Z,20.10
2018-06-21T12:43:00.118Z,20.10
2018-06-21T12:49:08.599Z,20.00
2018-06-21T12:52:16.844Z,20.00
2018-06-21T12:55:25.236Z,20.00
2018-06-21T12:58:35.278Z,20.00
2018-06-21T13:01:45.262Z,20.00
2018-06-21T13:04:54.787Z,19.90
2018-06-21T13:08:02.526Z,19.90
2018-06-21T13:11:21.086Z,19.90
2018-06-21T13:14:39.020Z,19.90
2018-06-21T13:17:48.596Z,19.90
2018-06-21T13:23:55.858Z,20.00
2018-06-21T13:27:05.616Z,20.00
2018-06-21T13:30:14.206Z,20.00
2018-06-21T13:33:23.607Z,20.00
2018-06-21T13:36:31.072Z,20.00
2018-06-21T13:39:39.760Z,19.90
2018-06-21T13:42:49.903Z,19.90
2018-06-21T13:48:59.135Z,19.90
2018-06-21T13:52:07.488Z,19.90
2018-06-21T13:55:16.873Z,19.90
2018-06-21T13:58:24.866Z,19.90
2018-06-21T14:01:34.112Z,19.90
2018-06-21T14:04:47.482Z,19.90
2018-06-21T14:07:56.783Z,19.90
2018-06-21T14:14:07.401Z,19.90
2018-06-21T14:17:15.612Z,19.90
2018-06-21T14:20:24.979Z,19.90
2018-06-21T14:23:36.868Z,19.90
2018-06-21T14:29:46.281Z,19.90
2018-06-21T14:32:56.295Z,19.90
2018-06-21T14:36:05.259Z,19.90
2018-06-21T14:39:14.799Z,19.90
2018-06-21T14:42:24.613Z,19.80
2018-06-21T14:45:34.448Z,19.90
2018-06-21T14:48:42.597Z,19.90
2018-06-21T14:51:52.263Z,19.90
2018-06-21T14:55:00.505Z,19.90
2018-06-21T14:58:08.378Z,19.90
2018-06-21T15:01:17.119Z,19.90
2018-06-21T15:04:26.589Z,19.90
2018-06-21T15:07:36.850Z,19.90
2018-06-21T15:10:47.442Z,20.00
2018-06-21T15:13:57.088Z,20.00
2018-06-21T15:17:04.888Z,20.00
2018-06-21T15:23:15.554Z,19.90
2018-06-21T15:26:23.474Z,19.90
2018-06-21T15:29:31.276Z,19.90
2018-06-21T15:35:41.958Z,19.90
2018-06-21T15:38:52.909Z,19.90
2018-06-21T15:42:02.034Z,20.00
2018-06-21T15:45:10.819Z,20.00
2018-06-21T15:48:21.731Z,20.00
2018-06-21T15:51:30.496Z,20.00
2018-06-21T15:54:39.304Z,20.00
2018-06-21T15:57:47.732Z,20.00
2018-06-21T16:00:57.519Z,20.00
2018-06-21T16:04:06.174Z,19.90
2018-06-21T16:07:15.032Z,20.00
2018-06-21T16:10:24.416Z,19.90
2018-06-21T16:13:33.198Z,19.90
2018-06-21T16:16:41.834Z,19.90
2018-06-21T16:19:51.927Z,19.90
2018-06-21T16:23:01.291Z,20.00
2018-06-21T16:26:09.861Z,19.90
2018-06-21T16:29:19.709Z,20.00
2018-06-21T16:32:28.522Z,20.00
2018-06-21T16:35:37.713Z,19.90
2018-06-21T16:38:46.249Z,20.00
2018-06-21T16:44:54.825Z,19.90
2018-06-21T16:48:02.373Z,19.90
2018-06-21T16:51:11.604Z,19.90
2018-06-21T16:54:20.220Z,19.80
2018-06-21T17:00:27.461Z,19.80
2018-06-21T17:03:35.436Z,19.90
2018-06-21T17:06:44.521Z,20.10
2018-06-21T17:09:54.105Z,20.40
2018-06-21T17:13:02.007Z,20.60
2018-06-21T17:16:09.798Z,20.80
2018-06-21T17:22:19.380Z,21.00
2018-06-21T17:28:41.408Z,21.10
2018-06-21T17:31:49.677Z,21.20
2018-06-21T17:34:57.245Z,21.30
2018-06-21T17:41:06.347Z,21.50
2018-06-21T17:47:14.610Z,21.60
2018-06-21T17:50:23.468Z,21.60
2018-06-21T17:53:31.375Z,21.70
2018-06-21T17:59:39.553Z,21.80
2018-06-21T18:02:49.018Z,21.90
2018-06-21T18:05:57.442Z,22.00
2018-06-21T18:09:05.233Z,21.90
2018-06-21T18:12:13.428Z,22.00
2018-06-21T18:18:21.998Z,22.10
2018-06-21T18:21:31.321Z,22.10
2018-06-21T18:24:39.641Z,22.10
2018-06-21T18:27:47.859Z,22.20
2018-06-21T18:30:55.030Z,22.20
2018-06-21T18:34:05.334Z,22.30
2018-06-21T18:37:14.004Z,22.30
2018-06-21T18:40:24.937Z,22.40
2018-06-21T18:43:33.395Z,22.40
2018-06-21T18:46:42.377Z,22.40
2018-06-21T18:49:51.280Z,22.50
2018-06-21T18:55:58.462Z,22.50
2018-06-21T18:59:09.190Z,22.50
2018-06-21T19:02:16.950Z,22.50
2018-06-21T19:05:26.447Z,22.50
2018-06-21T19:08:41.357Z,22.60
2018-06-21T19:11:54.485Z,22.60
2018-06-21T19:15:02.572Z,22.70
2018-06-21T19:18:11.353Z,22.70
2018-06-21T19:21:21.947Z,22.70
2018-06-21T19:24:32.162Z,22.70
2018-06-21T19:27:40.901Z,22.70
2018-06-21T19:30:49.523Z,22.70
2018-06-21T19:33:59.104Z,22.70
2018-06-21T19:37:07.841Z,22.70
2018-06-21T19:40:18.979Z,22.70
2018-06-21T19:43:27.748Z,22.80
2018-06-21T19:46:36.631Z,22.80
2018-06-21T19:49:46.972Z,22.90
2018-06-21T19:52:57.804Z,22.90
2018-06-21T19:56:08.280Z,22.90
2018-06-21T19:59:17.938Z,22.90
2018-06-21T20:02:27.573Z,22.80
2018-06-21T20:05:38.082Z,22.80
2018-06-21T20:08:48.587Z,22.90
2018-06-21T20:11:57.438Z,22.80
2018-06-21T20:15:07.119Z,22.90
2018-06-21T20:18:15.228Z,22.90
2018-06-21T20:21:28.982Z,22.90
2018-06-21T20:24:38.986Z,23.00
2018-06-21T20:27:48.654Z,23.00
2018-06-21T20:30:56.763Z,23.00
2018-06-21T20:34:05.212Z,23.00
2018-06-21T20:37:20.409Z,23.00
2018-06-21T20:40:28.516Z,22.90
2018-06-21T20:43:36.938Z,22.90
2018-06-21T20:46:46.928Z,22.90
2018-06-21T20:49:55.445Z,23.00
2018-06-21T20:53:05.179Z,23.00
2018-06-21T20:56:13.358Z,23.00
2018-06-21T20:59:21.680Z,23.00
2018-06-21T21:02:30.783Z,23.10
2018-06-21T21:05:38.678Z,23.00
2018-06-21T21:08:48.941Z,22.60
2018-06-21T21:11:58.620Z,22.30
2018-06-21T21:15:10.388Z,22.00
2018-06-21T21:21:19.154Z,21.70
2018-06-21T21:24:28.350Z,21.50
2018-06-21T21:27:38.030Z,21.40
2018-06-21T21:30:47.766Z,21.30
2018-06-21T21:33:55.998Z,21.20
2018-06-21T21:37:04.872Z,21.10
2018-06-21T21:40:15.282Z,21.10
2018-06-21T21:43:22.996Z,21.00
2018-06-21T21:49:33.044Z,20.80
2018-06-21T21:52:42.463Z,20.70
2018-06-21T21:55:51.159Z,20.70
2018-06-21T21:59:01.343Z,20.60
2018-06-21T22:02:10.687Z,20.60
2018-06-21T22:05:19.141Z,20.60
2018-06-21T22:08:28.033Z,20.60
2018-06-21T22:11:36.714Z,20.60
2018-06-21T22:14:45.243Z,20.50
2018-06-21T22:17:55.758Z,20.50
2018-06-21T22:24:04.262Z,20.30
2018-06-21T22:27:12.575Z,20.20
2018-06-21T22:30:20.889Z,20.20
2018-06-21T22:33:29.586Z,20.10
2018-06-21T22:36:37.870Z,20.10
2018-06-21T22:39:46.196Z,20.10
2018-06-21T22:42:55.014Z,20.00
2018-06-21T22:46:04.900Z,20.10
2018-06-21T22:49:13.119Z,20.10
2018-06-21T22:52:20.916Z,20.10
2018-06-21T22:55:30.386Z,20.00
2018-06-21T22:58:39.274Z,19.90
2018-06-21T23:01:48.586Z,19.90
2018-06-21T23:04:57.177Z,19.80
2018-06-21T23:08:07.408Z,19.90
2018-06-21T23:11:16.481Z,19.80
2018-06-21T23:14:25.619Z,19.80
2018-06-21T23:17:33.877Z,19.80
2018-06-21T23:20:41.949Z,19.80
2018-06-21T23:23:49.766Z,19.90
2018-06-21T23:27:06.967Z,19.90
2018-06-21T23:30:15.914Z,19.90
2018-06-21T23:33:24.643Z,19.80
2018-06-21T23:36:32.750Z,19.70
2018-06-21T23:39:41.597Z,19.70
2018-06-21T23:42:52.390Z,19.70
2018-06-21T23:46:04.814Z,19.70
2018-06-21T23:49:12.912Z,19.70
2018-06-21T23:52:22.142Z,19.80
2018-06-21T23:55:31.564Z,19.70
2018-06-21T23:58:40.824Z,19.80
